Time;durP1;ratioP1;P1;durP2;ratioP2;P2;SDS_P1;SDS_P2;PMS_P1;PMS_P2;Temp;Humidity;BMP_temperature;BMP_pressure;BME280_temperature;BME280_humidity;BME280_pressure;Samples;Min_cycle;Max_cycle;Signal;HPM_P1;HPM_P2
2023/07/13 00:01:21;;;;;;;1.83;1.10;;;;;;;26.76;57.10;98527.88;5020735;27;103264;-68
2023/07/13 00:03:49;;;;;;;2.33;1.23;;;;;;;26.58;58.12;98521.53;5041109;27;102736;-68
2023/07/13 00:06:17;;;;;;;2.00;1.17;;;;;;;26.38;58.63;98529.75;5036403;27;103904;-68
2023/07/13 00:08:45;;;;;;;1.33;1.03;;;;;;;26.06;58.87;98522.56;5036240;27;103048;-68
2023/07/13 00:11:13;;;;;;;2.90;1.13;;;;;;;26.46;57.88;98515.97;5015916;27;103965;-68
2023/07/13 00:13:45;;;;;;;2.53;1.20;;;;;;;26.29;58.02;98518.34;5036025;27;103661;-68
2023/07/13 00:16:14;;;;;;;2.87;1.27;;;;;;;25.85;59.17;98515.56;5036657;27;103876;-68
2023/07/13 00:18:44;;;;;;;2.15;1.00;;;;;;;26.44;58.01;98509.94;5027130;27;104234;-68
2023/07/13 00:21:14;;;;;;;2.83;1.30;;;;;;;26.26;57.79;98517.94;5042241;27;103436;-67
2023/07/13 00:23:43;;;;;;;2.23;1.10;;;;;;;25.88;58.27;98510.53;5036774;27;102865;-68
2023/07/13 00:26:13;;;;;;;1.17;0.90;;;;;;;26.42;57.34;98510.13;5043976;27;102716;-68
2023/07/13 00:28:41;;;;;;;3.90;1.25;;;;;;;25.71;58.32;98514.72;5034474;27;103321;-68
2023/07/13 00:31:14;;;;;;;1.48;1.02;;;;;;;25.68;58.85;98509.78;5020510;27;104310;-68
2023/07/13 00:33:43;;;;;;;2.08;1.10;;;;;;;25.92;57.85;98511.78;5036445;27;103526;-68
2023/07/13 00:36:11;;;;;;;3.33;1.20;;;;;;;25.51;58.74;98513.94;5039250;27;102743;-68
2023/07/13 00:38:43;;;;;;;2.17;1.13;;;;;;;25.32;58.83;98512.03;5011975;27;104857;-68
2023/07/13 00:41:11;;;;;;;1.50;1.10;;;;;;;25.85;58.18;98515.56;5034119;27;103422;-68
2023/07/13 00:43:42;;;;;;;2.80;1.30;;;;;;;25.73;58.46;98512.66;5040091;27;102767;-68
2023/07/13 00:46:22;;;;;;;2.95;1.00;;;;;;;25.76;58.16;98520.34;5019162;27;104276;-69
2023/07/13 00:48:51;;;;;;;2.88;1.13;;;;;;;25.71;58.02;98517.44;5031791;27;103598;-69
2023/07/13 00:51:24;;;;;;;3.90;1.10;;;;;;;25.56;58.55;98510.59;5018009;27;103289;-68
2023/07/13 00:53:55;;;;;;;1.83;1.20;;;;;;;25.66;58.52;98517.25;5038401;27;102692;-67
2023/07/13 00:56:28;;;;;;;3.05;1.20;;;;;;;25.80;58.05;98528.88;5019850;27;103043;-68
2023/07/13 00:58:57;;;;;;;1.70;1.10;;;;;;;25.83;58.36;98523.03;5034378;27;103387;-68
2023/07/13 01:01:26;;;;;;;2.50;1.10;;;;;;;25.80;58.17;98513.47;5036828;27;103220;-68
2023/07/13 01:03:54;;;;;;;1.42;0.95;;;;;;;25.92;57.66;98522.59;5019330;27;103201;-68
2023/07/13 01:06:22;;;;;;;2.33;1.08;;;;;;;25.89;57.61;98528.44;5020968;27;102830;-68
2023/07/13 01:08:50;;;;;;;2.30;1.10;;;;;;;25.52;58.22;98531.81;5041795;27;103321;-68
2023/07/13 01:11:21;;;;;;;0.90;0.70;;;;;;;25.90;57.88;98532.81;5034933;27;103058;-68
2023/07/13 01:13:50;;;;;;;2.07;1.00;;;;;;;25.86;57.86;98528.84;5016158;27;102731;-68
2023/07/13 01:16:25;;;;;;;1.38;0.90;;;;;;;25.82;57.80;98530.34;5042886;27;102721;-68
2023/07/13 01:18:58;;;;;;;2.80;1.20;;;;;;;25.54;58.07;98534.34;5036433;27;103215;-69
2023/07/13 01:21:29;;;;;;;3.80;1.15;;;;;;;25.45;58.77;98533.69;5039477;27;102978;-68
2023/07/13 01:23:59;;;;;;;2.30;1.20;;;;;;;25.20;59.28;98524.53;5020292;27;102724;-68
2023/07/13 01:26:28;;;;;;;1.83;0.98;;;;;;;25.57;58.23;98528.50;5037388;27;102905;-69
2023/07/13 01:28:57;;;;;;;1.97;1.00;;;;;;;25.42;59.41;98531.41;5034888;27;103710;-68
2023/07/13 01:31:26;;;;;;;3.17;1.10;;;;;;;25.37;59.63;98536.59;5037547;27;103283;-68
2023/07/13 01:33:55;;;;;;;2.30;1.20;;;;;;;25.17;60.20;98533.06;5025457;27;103048;-68
2023/07/13 01:36:22;;;;;;;2.38;1.20;;;;;;;24.67;61.07;98537.94;5042999;27;102729;-68
2023/07/13 01:38:52;;;;;;;1.93;1.10;;;;;;;24.76;60.92;98534.00;5039685;27;103996;-69
2023/07/13 01:41:20;;;;;;;2.73;1.13;;;;;;;24.31;61.86;98550.91;5040116;27;103232;-68
2023/07/13 01:43:48;;;;;;;1.30;1.02;;;;;;;24.69;60.61;98543.97;5043459;27;103911;-68
2023/07/13 01:46:18;;;;;;;2.50;1.20;;;;;;;24.09;63.30;98555.56;5035932;27;104029;-68
2023/07/13 01:48:51;;;;;;;3.42;1.20;;;;;;;23.76;63.82;98554.53;5036533;27;103807;-69
2023/07/13 01:51:20;;;;;;;1.35;0.85;;;;;;;24.23;62.62;98551.91;5040628;27;102994;-68
2023/07/13 01:53:49;;;;;;;2.73;1.30;;;;;;;24.36;62.51;98553.84;5036949;27;103026;-68
2023/07/13 01:56:19;;;;;;;3.08;1.50;;;;;;;23.32;64.12;98554.81;5042719;27;102986;-68
2023/07/13 01:58:57;;;;;;;2.13;1.10;;;;;;;23.98;62.77;98553.41;5021247;27;103967;-69
2023/07/13 02:01:25;;;;;;;3.00;1.10;;;;;;;24.11;63.20;98560.78;5062184;22;102972;-68
2023/07/13 02:03:54;;;;;;;1.50;1.30;;;;;;;23.57;64.87;98561.47;5064704;27;102714;-68
2023/07/13 02:06:24;;;;;;;3.70;1.17;;;;;;;23.48;64.65;98559.09;5060904;27;103756;-68
2023/07/13 02:08:52;;;;;;;2.50;1.33;;;;;;;23.26;66.00;98562.81;5060046;27;103376;-68
2023/07/13 02:11:32;;;;;;;1.95;1.23;;;;;;;23.50;65.58;98565.13;5054075;27;104189;-68
2023/07/13 02:14:00;;;;;;;2.17;1.38;;;;;;;23.83;65.05;98562.69;5032146;22;102714;-68
2023/07/13 02:16:28;;;;;;;2.88;1.40;;;;;;;23.79;65.28;98569.47;5007019;28;103790;-68
2023/07/13 02:19:00;;;;;;;3.60;1.58;;;;;;;23.26;67.81;98568.22;5019711;27;104253;-68
2023/07/13 02:21:28;;;;;;;3.47;1.37;;;;;;;23.29;67.74;98562.44;5017335;27;103190;-68
2023/07/13 02:23:57;;;;;;;2.80;1.20;;;;;;;22.78;68.39;98567.97;5002775;28;102772;-68
2023/07/13 02:26:27;;;;;;;5.68;1.50;;;;;;;22.10;71.11;98573.72;5023334;27;103957;-68
2023/07/13 02:28:55;;;;;;;2.10;1.45;;;;;;;21.02;77.38;98575.09;5017234;27;104471;-68
2023/07/13 02:31:23;;;;;;;3.05;1.70;;;;;;;20.91;79.16;98572.00;5022740;27;103207;-68
2023/07/13 02:33:54;;;;;;;3.20;1.52;;;;;;;21.18;79.11;98580.38;5022334;27;102636;-69
2023/07/13 02:36:22;;;;;;;2.15;1.50;;;;;;;21.60;76.28;98584.34;5016780;27;102659;-68
2023/07/13 02:38:50;;;;;;;5.73;1.60;;;;;;;21.79;75.92;98573.06;5014645;27;103269;-68
2023/07/13 02:41:18;;;;;;;1.50;1.23;;;;;;;22.53;72.51;98578.22;4995129;28;104603;-69
2023/07/13 02:43:47;;;;;;;3.17;1.50;;;;;;;21.26;76.91;98588.34;5019681;27;103058;-68
2023/07/13 02:46:16;;;;;;;2.87;1.60;;;;;;;21.49;76.77;98582.94;5016874;27;103071;-68
2023/07/13 02:48:43;;;;;;;4.37;1.63;;;;;;;21.57;75.37;98584.72;4997873;27;103324;-68
2023/07/13 02:51:13;;;;;;;2.20;1.33;;;;;;;22.16;73.13;98581.06;5014165;27;104123;-68
2023/07/13 02:53:41;;;;;;;2.80;1.40;;;;;;;22.50;70.93;98584.00;5002253;28;103211;-68
2023/07/13 02:56:09;;;;;;;2.97;1.53;;;;;;;21.90;73.52;98586.91;4997828;27;103815;-68
2023/07/13 02:58:38;;;;;;;3.08;1.40;;;;;;;21.79;73.08;98583.81;5018866;27;104409;-68
2023/07/13 03:01:10;;;;;;;4.00;1.40;;;;;;;21.61;73.64;98586.03;4994332;28;103521;-68
2023/07/13 03:03:39;;;;;;;2.63;1.50;;;;;;;21.26;74.91;98585.66;5000885;28;102900;-68
2023/07/13 03:06:08;;;;;;;3.20;1.30;;;;;;;21.96;73.38;98590.72;4999370;28;104425;-68
2023/07/13 03:08:45;;;;;;;1.63;1.20;;;;;;;22.02;71.96;98594.50;5002010;27;103830;-69
2023/07/13 03:11:17;;;;;;;1.08;0.80;;;;;;;22.80;69.74;98595.53;5020427;27;103199;-68
2023/07/13 03:13:49;;;;;;;1.87;1.30;;;;;;;23.03;69.09;98590.81;4997755;28;103574;-68
2023/07/13 03:16:18;;;;;;;2.00;1.00;;;;;;;23.20;69.06;98596.78;4994501;27;103543;-68
2023/07/13 03:18:49;;;;;;;0.85;0.85;;;;;;;23.39;68.87;98590.75;5001103;28;104859;-68
2023/07/13 03:21:18;;;;;;;1.92;1.10;;;;;;;23.27;70.17;98607.63;5004060;28;105261;-68
2023/07/13 03:23:46;;;;;;;2.75;1.33;;;;;;;23.34;69.47;98603.94;5004979;27;103124;-69
2023/07/13 03:26:17;;;;;;;4.03;1.60;;;;;;;23.17;70.33;98604.41;4995763;28;104426;-70
2023/07/13 03:28:46;;;;;;;1.65;1.20;;;;;;;23.18;71.22;98609.63;5023278;27;104485;-71
2023/07/13 03:31:24;;;;;;;1.63;1.20;;;;;;;23.41;69.36;98604.88;4996403;28;102941;-70
2023/07/13 03:33:52;;;;;;;3.83;1.73;;;;;;;23.01;70.92;98618.97;4996741;28;102781;-71
2023/07/13 03:36:23;;;;;;;1.43;0.80;;;;;;;23.52;69.25;98617.81;5013668;27;104066;-72
2023/07/13 03:38:56;;;;;;;2.17;1.57;;;;;;;23.17;70.58;98629.50;5012380;28;103262;-71
2023/07/13 03:41:31;;;;;;;1.85;1.30;;;;;;;22.96;70.80;98627.59;4996233;28;103105;-71
2023/07/13 03:43:59;;;;;;;2.83;1.38;;;;;;;23.18;70.70;98631.19;4999735;27;103091;-71
2023/07/13 03:46:29;;;;;;;2.38;1.52;;;;;;;22.67;72.80;98633.09;4993734;28;103918;-72
2023/07/13 03:48:58;;;;;;;5.10;1.70;;;;;;;22.06;75.06;98628.09;4993629;28;103925;-71
2023/07/13 03:51:26;;;;;;;3.70;1.40;;;;;;;22.97;71.41;98628.44;5003810;27;104133;-78
2023/07/13 03:53:54;;;;;;;2.30;1.10;;;;;;;23.14;71.36;98635.25;5001408;28;102674;-70
2023/07/13 03:56:22;;;;;;;2.40;1.25;;;;;;;23.61;68.62;98637.38;5016103;27;102699;-71
2023/07/13 03:58:51;;;;;;;2.53;1.50;;;;;;;23.38;69.04;98642.97;4992903;28;104626;-68
2023/07/13 04:01:23;;;;;;;1.80;1.17;;;;;;;23.65;68.26;98644.91;4994359;27;104268;-68
2023/07/13 04:03:53;;;;;;;2.37;1.30;;;;;;;23.83;66.88;98643.59;4999333;28;103396;-68
2023/07/13 04:06:25;;;;;;;1.70;1.40;;;;;;;23.94;66.12;98637.66;4996320;27;104325;-68
2023/07/13 04:08:57;;;;;;;2.60;1.63;;;;;;;23.90;66.44;98639.06;5015032;27;104410;-68
2023/07/13 04:11:28;;;;;;;1.83;1.40;;;;;;;24.06;66.07;98641.44;4998370;27;103204;-68
2023/07/13 04:13:56;;;;;;;3.80;1.75;;;;;;;23.85;66.70;98644.22;5010784;27;102789;-68
2023/07/13 04:16:25;;;;;;;1.80;1.23;;;;;;;23.86;66.80;98646.72;5015930;27;104230;-69
2023/07/13 04:18:59;;;;;;;2.08;1.67;;;;;;;23.66;67.61;98645.75;5017290;27;104244;-71
2023/07/13 04:21:29;;;;;;;2.25;1.63;;;;;;;23.80;66.68;98647.53;5003571;28;102799;-67
2023/07/13 04:23:57;;;;;;;2.10;1.50;;;;;;;23.52;69.08;98647.47;5019317;27;102732;-67
2023/07/13 04:26:25;;;;;;;1.60;1.40;;;;;;;23.87;66.76;98644.84;4999538;28;102867;-65
2023/07/13 04:28:53;;;;;;;2.47;1.25;;;;;;;23.89;67.66;98648.22;5018149;27;103921;-64
2023/07/13 04:31:21;;;;;;;2.22;1.58;;;;;;;23.69;68.43;98649.91;5021785;27;103151;-64
2023/07/13 04:33:53;;;;;;;1.70;1.40;;;;;;;23.24;68.79;98654.66;4999957;27;104434;-64
2023/07/13 04:36:22;;;;;;;2.97;1.80;;;;;;;23.21;69.12;98652.34;5003297;27;103046;-65
2023/07/13 04:38:50;;;;;;;3.35;1.70;;;;;;;23.08;70.40;98652.19;4997494;28;104331;-67
2023/07/13 04:41:19;;;;;;;3.40;1.70;;;;;;;23.26;69.64;98647.22;5019522;27;103220;-67
2023/07/13 04:43:47;;;;;;;2.80;1.70;;;;;;;23.14;70.32;98656.81;5018923;27;102689;-67
2023/07/13 04:46:17;;;;;;;2.97;1.80;;;;;;;22.92;70.15;98668.59;5001240;28;104063;-67
2023/07/13 04:48:46;;;;;;;3.60;1.90;;;;;;;22.65;71.47;98661.22;5013688;27;103966;-67
2023/07/13 04:51:17;;;;;;;4.13;1.67;;;;;;;22.52;71.01;98656.47;5014055;27;103217;-68
2023/07/13 04:53:46;;;;;;;2.40;1.70;;;;;;;22.83;70.28;98658.94;5018805;27;103018;-67
2023/07/13 04:56:14;;;;;;;3.50;1.70;;;;;;;22.97;69.40;98666.16;5015591;27;103903;-67
2023/07/13 04:58:45;;;;;;;2.67;1.75;;;;;;;22.58;70.51;98661.09;4985770;28;104272;-67
2023/07/13 05:01:14;;;;;;;3.75;2.00;;;;;;;22.77;70.49;98673.16;4993416;28;103945;-67
2023/07/13 05:03:42;;;;;;;1.98;1.45;;;;;;;23.13;69.33;98671.31;5016658;27;102682;-68
2023/07/13 05:06:10;;;;;;;1.53;1.30;;;;;;;23.63;67.72;98673.91;5020479;27;103909;-67
2023/07/13 05:08:39;;;;;;;2.40;1.70;;;;;;;23.29;68.72;98665.69;5002761;28;104364;-67
2023/07/13 05:11:08;;;;;;;2.83;1.37;;;;;;;23.76;67.52;98666.97;5001134;27;104578;-67
2023/07/13 05:13:36;;;;;;;2.05;1.60;;;;;;;23.83;67.40;98663.28;5023709;27;102677;-67
2023/07/13 05:16:10;;;;;;;2.00;1.30;;;;;;;24.15;66.52;98673.53;5004784;28;102816;-67
2023/07/13 05:18:38;;;;;;;1.90;1.40;;;;;;;24.18;64.68;98669.59;5019543;27;103474;-67
2023/07/13 05:21:12;;;;;;;2.42;1.42;;;;;;;24.33;64.30;98674.88;5024759;27;103387;-68
2023/07/13 05:23:42;;;;;;;1.83;1.58;;;;;;;24.39;64.11;98685.75;5018999;27;102760;-68
2023/07/13 05:26:14;;;;;;;2.53;1.40;;;;;;;24.47;64.59;98679.34;5025457;27;104202;-68
2023/07/13 05:28:42;;;;;;;1.75;1.23;;;;;;;24.57;63.88;98677.94;5024636;27;103550;-68
2023/07/13 05:31:19;;;;;;;3.70;1.70;;;;;;;24.49;63.57;98672.69;5019783;27;103255;-68
2023/07/13 05:33:48;;;;;;;2.73;1.80;;;;;;;24.33;63.86;98675.72;4997803;27;102877;-68
2023/07/13 05:36:20;;;;;;;3.38;1.48;;;;;;;24.82;62.87;98680.13;5002525;28;102941;-68
2023/07/13 05:38:49;;;;;;;2.50;1.40;;;;;;;25.09;62.38;98676.50;5025422;22;103717;-67
2023/07/13 05:41:20;;;;;;;1.67;1.40;;;;;;;25.22;61.84;98673.84;5026781;27;103197;-67
2023/07/13 05:44:06;;;;;;;2.10;1.53;;;;;;;25.39;61.60;98669.72;5014246;27;102793;-68
2023/07/13 05:46:34;;;;;;;2.83;1.40;;;;;;;25.17;62.71;98673.63;5017501;27;102902;-69
2023/07/13 05:49:04;;;;;;;1.58;1.30;;;;;;;25.32;60.09;98676.97;5010814;27;103798;-69
2023/07/13 05:51:32;;;;;;;2.08;1.40;;;;;;;25.33;61.05;98678.63;5004993;27;103249;-69
2023/07/13 05:54:01;;;;;;;2.25;1.25;;;;;;;24.95;60.61;98696.41;5011448;27;102681;-70
2023/07/13 05:56:31;;;;;;;3.85;1.50;;;;;;;24.85;59.79;98685.13;5012734;27;103031;-70
2023/07/13 05:58:59;;;;;;;2.88;1.52;;;;;;;25.03;60.65;98688.13;5006921;27;103595;-70
2023/07/13 06:01:27;;;;;;;3.80;1.63;;;;;;;25.08;60.56;98696.47;5010949;27;103225;-70
2023/07/13 06:03:55;;;;;;;3.70;1.20;;;;;;;25.51;59.75;98692.44;5004150;27;102710;-69
2023/07/13 06:06:23;;;;;;;2.72;1.40;;;;;;;25.59;59.61;98694.94;5011766;27;104408;-69
2023/07/13 06:08:51;;;;;;;2.97;1.20;;;;;;;25.87;58.58;98689.34;5010076;27;103249;-70
2023/07/13 06:11:22;;;;;;;2.88;1.42;;;;;;;25.58;57.45;98689.72;5011312;27;103376;-70
2023/07/13 06:13:52;;;;;;;2.53;1.48;;;;;;;25.76;57.63;98695.38;5014234;27;102705;-69
2023/07/13 06:16:20;;;;;;;1.90;1.50;;;;;;;25.74;56.11;98697.47;5013563;27;104369;-68
2023/07/13 06:18:48;;;;;;;2.60;1.50;;;;;;;25.43;56.24;98702.59;5008775;27;103261;-67
2023/07/13 06:21:19;;;;;;;2.00;1.60;;;;;;;25.61;54.80;98713.66;5015741;27;103169;-66
2023/07/13 06:23:53;;;;;;;2.08;1.48;;;;;;;25.87;55.62;98702.88;5005656;27;102655;-68
2023/07/13 06:26:21;;;;;;;2.00;1.60;;;;;;;25.99;55.29;98713.91;5013308;27;104215;-68
2023/07/13 06:28:49;;;;;;;2.70;1.33;;;;;;;25.83;55.51;98713.28;5011054;27;103258;-70
2023/07/13 06:31:19;;;;;;;3.15;1.50;;;;;;;25.64;55.39;98724.91;5014524;27;103559;-70
2023/07/13 06:33:47;;;;;;;2.90;1.70;;;;;;;25.49;55.81;98726.97;5007152;27;103243;-68
2023/07/13 06:36:15;;;;;;;4.25;1.63;;;;;;;25.28;56.64;98732.50;5007965;27;103809;-70
2023/07/13 06:38:43;;;;;;;2.58;1.38;;;;;;;26.04;55.64;98731.19;5013548;27;104036;-70
2023/07/13 06:41:12;;;;;;;5.43;1.87;;;;;;;25.71;55.20;98736.56;5014351;27;103244;-68
2023/07/13 06:43:42;;;;;;;1.67;1.10;;;;;;;26.50;53.65;98726.56;5010023;27;102873;-69
2023/07/13 06:46:11;;;;;;;3.75;1.60;;;;;;;26.40;53.94;98731.59;5009271;27;103152;-68
2023/07/13 06:48:40;;;;;;;3.83;1.53;;;;;;;26.87;53.60;98730.47;5008316;27;103426;-68
2023/07/13 06:51:09;;;;;;;1.93;1.07;;;;;;;26.72;51.90;98735.31;5004589;27;104183;-68
2023/07/13 06:53:38;;;;;;;2.63;1.30;;;;;;;26.72;52.17;98739.88;5009633;27;102797;-69
2023/07/13 06:56:06;;;;;;;2.77;1.10;;;;;;;27.25;51.69;98746.81;5013379;27;102834;-68
2023/07/13 06:58:36;;;;;;;1.98;1.20;;;;;;;27.27;51.32;98741.16;5001293;27;104279;-68
2023/07/13 07:01:04;;;;;;;2.75;1.23;;;;;;;27.35;51.03;98743.63;5009237;27;103199;-69
2023/07/13 07:03:35;;;;;;;2.78;1.40;;;;;;;27.13;50.42;98745.81;5006006;27;102687;-69
2023/07/13 07:06:13;;;;;;;3.88;1.70;;;;;;;26.11;51.65;98747.41;5008094;27;103495;-69
2023/07/13 07:08:41;;;;;;;1.88;1.20;;;;;;;26.75;51.36;98750.31;5005669;27;104570;-69
2023/07/13 07:11:14;;;;;;;2.70;1.10;;;;;;;27.42;51.24;98745.28;5005816;27;103227;-69
2023/07/13 07:13:42;;;;;;;3.05;1.30;;;;;;;27.31;51.30;98748.63;5006362;27;102750;-69
2023/07/13 07:16:10;;;;;;;2.43;1.23;;;;;;;26.84;52.51;98752.56;5010319;27;104287;-69
2023/07/13 07:18:38;;;;;;;2.30;1.30;;;;;;;27.30;50.79;98751.56;5027989;27;104342;-69
2023/07/13 07:21:08;;;;;;;2.03;1.30;;;;;;;27.76;50.33;98740.50;5007554;27;105902;-70
2023/07/13 07:23:36;;;;;;;3.10;1.40;;;;;;;25.92;50.47;98752.63;5018584;27;102667;-70
2023/07/13 07:26:05;;;;;;;2.03;1.20;;;;;;;25.01;53.53;98749.66;5026838;27;102912;-70
2023/07/13 07:28:33;;;;;;;3.10;1.23;;;;;;;26.68;50.47;98744.06;5013187;27;103352;-69
2023/07/13 07:31:04;;;;;;;3.97;1.20;;;;;;;26.50;49.12;98747.41;5010491;27;104371;-69
2023/07/13 07:33:34;;;;;;;2.77;1.13;;;;;;;25.92;51.79;98749.94;5004131;27;103019;-69
2023/07/13 07:36:03;;;;;;;2.97;1.37;;;;;;;26.31;50.78;98753.69;5010547;27;103285;-67
2023/07/13 07:38:35;;;;;;;2.80;1.23;;;;;;;26.33;49.60;98748.91;5009009;27;104053;-68
2023/07/13 07:41:05;;;;;;;2.00;1.30;;;;;;;25.98;49.44;98750.13;5006337;27;103205;-68
2023/07/13 07:43:36;;;;;;;4.67;1.40;;;;;;;26.17;48.88;98747.44;5006795;27;104990;-68
2023/07/13 07:46:04;;;;;;;2.72;1.02;;;;;;;27.08;48.51;98744.78;5010524;27;103507;-68
2023/07/13 07:48:33;;;;;;;1.77;0.98;;;;;;;28.17;47.58;98749.81;5005750;27;103324;-67
2023/07/13 07:51:01;;;;;;;3.20;1.30;;;;;;;28.41;47.30;98750.03;5010240;27;103318;-67
2023/07/13 07:53:29;;;;;;;2.63;1.40;;;;;;;27.64;48.63;98756.63;5008015;27;102765;-68
2023/07/13 07:56:05;;;;;;;2.05;0.95;;;;;;;28.86;46.90;98751.44;5007021;27;103159;-68
2023/07/13 07:58:53;;;;;;;2.58;1.25;;;;;;;27.75;47.03;98747.78;5016993;27;104202;-67
2023/07/13 08:01:24;;;;;;;3.20;1.20;;;;;;;28.14;48.27;98747.53;5008363;27;104175;-65
2023/07/13 08:03:55;;;;;;;2.47;1.20;;;;;;;28.42;46.92;98755.22;5012617;27;102722;-64
2023/07/13 08:06:26;;;;;;;1.88;1.10;;;;;;;28.90;46.41;98755.38;5014534;27;103484;-65
2023/07/13 08:08:57;;;;;;;2.75;1.17;;;;;;;29.48;45.57;98760.31;5012568;27;103700;-66
2023/07/13 08:11:26;;;;;;;2.45;1.00;;;;;;;28.71;44.62;98753.72;5015446;27;103128;-64
2023/07/13 08:13:57;;;;;;;1.70;1.10;;;;;;;29.63;42.96;98763.47;5015077;27;102838;-63
2023/07/13 08:16:25;;;;;;;2.90;1.10;;;;;;;28.27;44.38;98760.16;5014617;27;102628;-64
2023/07/13 08:18:55;;;;;;;3.53;1.10;;;;;;;27.55;45.44;98758.78;5005922;27;103798;-64
2023/07/13 08:21:23;;;;;;;1.90;1.10;;;;;;;29.25;44.85;98756.44;5010293;27;103205;-68
2023/07/13 08:23:51;;;;;;;3.03;1.17;;;;;;;29.70;43.56;98759.56;5010086;27;102823;-67
2023/07/13 08:26:22;;;;;;;2.97;1.27;;;;;;;30.23;43.61;98759.59;5011198;27;104407;-66
2023/07/13 08:28:52;;;;;;;3.10;1.17;;;;;;;29.16;45.11;98763.22;5008487;27;104059;-67
2023/07/13 08:31:20;;;;;;;2.03;1.10;;;;;;;29.88;43.27;98762.28;5013183;27;103227;-63
2023/07/13 08:33:48;;;;;;;2.42;1.00;;;;;;;30.90;42.93;98754.66;5007144;27;102846;-64
2023/07/13 08:36:16;;;;;;;2.65;1.10;;;;;;;29.04;44.78;98758.75;5010743;27;103540;-64
2023/07/13 08:38:44;;;;;;;2.72;1.45;;;;;;;30.28;43.10;98754.31;5002496;27;104110;-64
2023/07/13 08:41:14;;;;;;;3.05;1.20;;;;;;;30.42;42.85;98753.03;5007049;27;104299;-66
2023/07/13 08:43:46;;;;;;;2.80;1.20;;;;;;;29.01;44.15;98761.94;5013508;27;102726;-64
2023/07/13 08:46:19;;;;;;;4.30;1.42;;;;;;;28.37;44.77;98763.22;5011659;27;103938;-62
2023/07/13 08:48:52;;;;;;;3.30;1.23;;;;;;;28.60;44.22;98762.56;5012124;27;103295;-61
2023/07/13 08:51:34;;;;;;;3.23;1.30;;;;;;;29.44;45.26;98759.13;5015983;27;103178;-63
2023/07/13 08:54:05;;;;;;;3.55;1.30;;;;;;;30.69;43.66;98763.44;5015140;27;102773;-63
2023/07/13 08:56:33;;;;;;;4.10;1.33;;;;;;;29.02;43.87;98767.16;5010938;27;102671;-62
2023/07/13 08:59:12;;;;;;;2.73;1.20;;;;;;;27.73;45.63;98776.22;5007553;27;103582;-62
2023/07/13 09:02:05;;;;;;;3.53;1.08;;;;;;;28.64;43.53;98764.63;5012659;27;103498;-62
2023/07/13 09:04:36;;;;;;;2.20;1.23;;;;;;;31.13;42.41;98762.00;5007580;27;103144;-63
2023/07/13 09:07:14;;;;;;;4.10;1.30;;;;;;;32.86;41.70;98759.38;5019294;27;103350;-63
2023/07/13 09:09:56;;;;;;;4.70;1.47;;;;;;;31.10;41.43;98760.59;5009713;27;103301;-66
2023/07/13 09:12:33;;;;;;;2.57;1.10;;;;;;;31.35;41.04;98754.81;5013615;27;103225;-66
2023/07/13 09:15:05;;;;;;;3.17;1.20;;;;;;;29.26;43.88;98777.13;5011328;27;102926;-64
2023/07/13 09:17:42;;;;;;;2.57;1.20;;;;;;;28.64;45.34;98763.81;5010405;27;104064;-65
2023/07/13 09:20:21;;;;;;;3.13;1.33;;;;;;;30.15;42.95;98762.69;5009841;27;103372;-65
2023/07/13 09:22:50;;;;;;;3.23;1.37;;;;;;;29.50;45.59;98763.66;5007949;27;103343;-65
2023/07/13 09:25:27;;;;;;;2.60;1.40;;;;;;;30.83;43.30;98759.41;5008362;27;102994;-66
2023/07/13 09:28:00;;;;;;;3.78;1.50;;;;;;;32.55;42.27;98758.94;5014695;27;103517;-66
2023/07/13 09:30:35;;;;;;;4.00;1.40;;;;;;;31.78;41.19;98767.94;5012360;27;103458;-65
2023/07/13 09:33:04;;;;;;;3.80;1.30;;;;;;;33.15;41.46;98763.63;5013287;27;103266;-65
2023/07/13 09:35:32;;;;;;;3.43;1.37;;;;;;;32.55;40.43;98764.41;5015368;27;102841;-65
2023/07/13 09:38:12;;;;;;;3.97;1.40;;;;;;;31.61;41.74;98761.63;5014538;27;103884;-65
2023/07/13 09:40:50;;;;;;;3.25;1.00;;;;;;;32.78;40.65;98757.91;5011023;27;103251;-65
2023/07/13 09:43:21;;;;;;;3.38;1.13;;;;;;;32.81;38.92;98756.56;5016865;27;103152;-65
2023/07/13 09:45:49;;;;;;;2.88;1.10;;;;;;;33.80;38.31;98756.19;5014065;27;102667;-65
2023/07/13 09:48:19;;;;;;;4.35;1.35;;;;;;;33.27;38.22;98756.09;5020185;27;102948;-65
2023/07/13 09:50:47;;;;;;;2.92;1.17;;;;;;;32.16;40.81;98754.47;5024081;27;104355;-65
2023/07/13 09:53:18;;;;;;;3.03;1.20;;;;;;;33.66;39.29;98743.97;5014117;27;103015;-65
2023/07/13 09:55:48;;;;;;;7.88;1.80;;;;;;;34.20;38.62;98754.94;5012072;27;102768;-65
2023/07/13 09:58:23;;;;;;;4.60;1.50;;;;;;;33.54;38.82;98746.03;5006957;27;102901;-65
2023/07/13 10:00:57;;;;;;;3.10;1.20;;;;;;;33.66;39.17;98749.47;5010376;27;103401;-65
2023/07/13 10:03:29;;;;;;;3.92;1.38;;;;;;;33.80;37.83;98753.44;5012504;27;103244;-65
2023/07/13 10:06:05;;;;;;;2.23;1.30;;;;;;;33.50;39.00;98744.06;5007243;27;102680;-65
2023/07/13 10:08:36;;;;;;;3.13;1.25;;;;;;;35.00;37.60;98738.22;5000343;27;103826;-65
2023/07/13 10:11:12;;;;;;;3.70;1.15;;;;;;;35.79;37.89;98744.28;5004064;27;103576;-64
2023/07/13 10:13:44;;;;;;;2.47;1.42;;;;;;;33.63;39.00;98747.25;4998625;27;103532;-64
2023/07/13 10:16:12;;;;;;;4.65;1.40;;;;;;;33.15;38.96;98748.03;5027875;27;102974;-63
2023/07/13 10:18:46;;;;;;;2.55;1.30;;;;;;;33.12;39.22;98753.19;5001043;27;104098;-65
2023/07/13 10:21:18;;;;;;;5.15;1.45;;;;;;;30.50;42.25;98743.66;5003800;27;103327;-65
2023/07/13 10:23:58;;;;;;;2.80;1.40;;;;;;;31.70;41.19;98754.69;5005874;27;103285;-64
2023/07/13 10:26:31;;;;;;;4.33;1.60;;;;;;;32.47;39.21;98745.66;5005031;27;102986;-64
2023/07/13 10:29:05;;;;;;;3.05;1.20;;;;;;;32.14;39.44;98740.22;4995990;27;104520;-64
2023/07/13 10:31:35;;;;;;;2.45;1.40;;;;;;;31.51;41.03;98746.72;5007309;27;103319;-66
2023/07/13 10:34:06;;;;;;;3.35;1.35;;;;;;;32.11;39.88;98746.19;5007565;27;103332;-64
2023/07/13 10:36:40;;;;;;;1.40;1.00;;;;;;;32.34;40.23;98746.00;5009577;27;103456;-65
2023/07/13 10:39:17;;;;;;;4.22;1.38;;;;;;;31.63;39.73;98748.56;5001603;27;102895;-65
2023/07/13 10:41:50;;;;;;;3.97;1.33;;;;;;;32.20;40.05;98744.66;5012190;27;104251;-65
2023/07/13 10:44:26;;;;;;;2.50;1.20;;;;;;;32.69;39.52;98743.84;5007666;27;103257;-64
2023/07/13 10:46:59;;;;;;;2.47;1.20;;;;;;;32.08;39.67;98752.97;5007205;27;102831;-64
2023/07/13 10:49:31;;;;;;;2.88;1.40;;;;;;;29.88;42.34;98756.00;5009602;27;104075;-64
2023/07/13 10:52:00;;;;;;;3.33;1.50;;;;;;;30.00;43.69;98748.69;5003485;27;104042;-64
2023/07/13 10:54:31;;;;;;;1.73;1.13;;;;;;;32.40;41.03;98735.97;5008919;27;103166;-63
2023/07/13 10:57:19;;;;;;;2.63;1.30;;;;;;;32.79;40.84;98739.59;5015814;27;102869;-64
2023/07/13 11:00:15;;;;;;;2.05;1.20;;;;;;;33.93;40.51;98737.69;5008614;27;103693;-64
2023/07/13 11:02:43;;;;;;;3.40;1.30;;;;;;;33.86;38.68;98728.81;5006873;27;104514;-65
2023/07/13 11:05:29;;;;;;;2.08;1.10;;;;;;;33.54;39.50;98726.88;5013369;27;103549;-64
2023/07/13 11:08:20;;;;;;;4.47;1.40;;;;;;;30.11;41.86;98739.72;5005110;27;102683;-67
2023/07/13 11:10:52;;;;;;;2.63;1.30;;;;;;;32.96;39.96;98723.94;5005279;27;103930;-65
2023/07/13 11:13:55;;;;;;;3.28;1.38;;;;;;;34.10;38.01;98730.19;5008972;27;103518;-65
2023/07/13 11:16:38;;;;;;;4.03;1.65;;;;;;;33.15;39.41;98725.31;5010949;27;104242;-63
2023/07/13 11:19:39;;;;;;;3.13;1.65;;;;;;;34.23;37.81;98711.38;5001976;27;103095;-63
2023/07/13 11:22:21;;;;;;;3.60;1.17;;;;;;;31.97;40.00;98717.50;5010584;27;104013;-62
2023/07/13 11:24:53;;;;;;;12.97;2.87;;;;;;;32.64;39.98;98710.94;5006165;27;104495;-62
2023/07/13 11:27:41;;;;;;;3.35;1.27;;;;;;;30.94;41.07;98717.66;5012005;27;104173;-61
2023/07/13 11:30:34;;;;;;;2.30;1.17;;;;;;;31.71;41.01;98712.66;5021354;27;102740;-62
2023/07/13 11:33:14;;;;;;;2.77;1.23;;;;;;;32.86;38.41;98710.13;5014680;27;104539;-61
2023/07/13 11:35:58;;;;;;;2.90;1.45;;;;;;;32.02;38.93;98714.88;4998056;27;104285;-61
2023/07/13 11:38:35;;;;;;;4.10;1.42;;;;;;;30.40;41.08;98705.28;5002919;27;103247;-63
2023/07/13 11:41:07;;;;;;;3.78;1.40;;;;;;;32.21;39.63;98716.28;4998812;27;102910;-62
2023/07/13 11:43:35;;;;;;;3.85;1.48;;;;;;;32.27;39.34;98719.91;5002808;27;103953;-63